John Wayne Airport-Orange County Airport
KSNA : now visible

Airfield :











YOU CAN JOIN US ON...

 
LOGIN :

Register | Disclaimer

   EN    FR    IT 

 









Legend :    VFR   Marginal VFR   IFR   Intensive IFR   Very Intensive IFR
Visi :
Ceiling :
>= 8 km
>= 3000ft
5 to 8 km
1000 to 3000 ft
1500m to 5 km
500 to 1000 ft
800 to 1500m
200 to 500 ft
< 800m
< 200 ft
Symbols :   Thunderstorms  Fog  Heavy snow  Heavy precipitations  Wind > 20 kt






- Airport Elevation : 56 ft
- IATA code : SNA


KSNA - John Wayne -Orange County

CURRENT METAR :
  • 030953Z AUTO 03010KT 10SM FEW044 18/M12 A3013 RMK AO2 SLP201 T01831122

EXPIRED METARs :
  • 030853Z AUTO 04013G17KT 10SM BKN045 18/M12 A3012 RMK AO2 SLP198 T01831117 51004
  • 030753Z AUTO 05005KT 10SM CLR 19/M12 A3012 RMK AO2 SLP197 T01891117 402440078

TAF KSNA
Valid from the 03 at 09:00 until the 04 at 06:00 UTC


030912Z 0309/0406 04012G20KT P6SM BKN040
FM031200 08016G26KT P6SM BKN040
FM032200 07007KT P6SM SKC
KZLA FIR / North America



MET'MAP, your aeronautical weather chart ! - Copyright ORBIFLY December 2007 - Disclaimer

ORBIFLY MET'MAP TEAM :

Programming & Development : Alexandra Zaïnal
Concept & original design : Baudouin d'Aumeries
Assistance for programming : Marc-Olivier Méhu
Technical & hardware support : Manuel Goepfert

Contact : metmap@orbifly.com




SOURCES & CREDITS :

   NOAA       Earth
Advisory